createdAt,value
2022-10-31T00:00:50.712Z,98390.66
2022-10-31T00:03:53.312Z,98396.28
2022-10-31T00:06:55.552Z,98389.16
2022-10-31T00:09:57.873Z,98399.34
2022-10-31T00:13:00.474Z,98403.06
2022-10-31T00:16:02.938Z,98413.91
2022-10-31T00:19:07.398Z,98420.31
2022-10-31T00:22:09.594Z,98423.63
2022-10-31T00:25:11.788Z,98422.69
2022-10-31T00:28:13.983Z,98412.91
2022-10-31T00:31:16.351Z,98411.22
2022-10-31T00:34:19.629Z,98417.09
2022-10-31T00:37:21.712Z,98420.78
2022-10-31T00:40:23.777Z,98418.19
2022-10-31T00:43:27.248Z,98415.34
2022-10-31T00:46:29.348Z,98420.88
2022-10-31T00:49:31.418Z,98426.78
2022-10-31T00:52:33.527Z,98426.47
2022-10-31T00:55:35.593Z,98440.31
2022-10-31T00:58:37.736Z,98432.34
2022-10-31T01:01:40.042Z,98441.66
2022-10-31T01:04:42.251Z,98449.28
2022-10-31T01:07:44.374Z,98447.19
2022-10-31T01:10:46.461Z,98449.94
2022-10-31T01:13:49.025Z,98445.31
2022-10-31T01:16:51.093Z,98447.88
2022-10-31T01:19:53.290Z,98457.00
2022-10-31T01:22:55.380Z,98453.13
2022-10-31T01:26:12.837Z,98457.66
2022-10-31T01:29:16.025Z,98458.63
2022-10-31T01:32:18.183Z,98461.16
2022-10-31T01:35:20.853Z,98466.16
2022-10-31T01:38:23.125Z,98462.84
2022-10-31T01:41:30.109Z,98472.78
2022-10-31T01:44:32.004Z,98466.28
2022-10-31T01:47:47.178Z,98481.41
2022-10-31T01:50:49.801Z,98470.03
2022-10-31T01:53:52.153Z,98480.81
2022-10-31T01:56:54.696Z,98480.88
2022-10-31T02:00:03.854Z,98485.81
2022-10-31T02:03:15.385Z,98471.84
2022-10-31T02:06:48.650Z,98477.13
2022-10-31T02:09:50.702Z,98470.38
2022-10-31T02:12:57.931Z,98470.78
2022-10-31T02:16:00.403Z,98471.16
2022-10-31T02:19:03.601Z,98473.38
2022-10-31T02:22:49.085Z,98480.84
2022-10-31T02:26:14.137Z,98476.25
2022-10-31T02:29:55.728Z,98463.34
2022-10-31T02:33:02.446Z,98470.88
2022-10-31T02:36:21.808Z,98462.63
2022-10-31T02:39:41.049Z,98476.28
2022-10-31T02:43:10.060Z,98472.81
2022-10-31T02:46:21.358Z,98467.91
2022-10-31T02:49:46.869Z,98461.97
2022-10-31T02:52:52.960Z,98463.19
2022-10-31T02:56:21.402Z,98475.72
2022-10-31T02:59:23.491Z,98465.19
2022-10-31T03:03:05.129Z,98463.19
2022-10-31T03:06:25.586Z,98457.63
2022-10-31T03:10:17.881Z,98455.38
2022-10-31T03:13:47.411Z,98458.28
2022-10-31T03:16:53.361Z,98460.13
2022-10-31T03:19:55.875Z,98462.91
2022-10-31T03:22:57.998Z,98465.00
2022-10-31T03:26:00.372Z,98450.47
2022-10-31T03:29:06.157Z,98451.59
2022-10-31T03:32:17.571Z,98454.56
2022-10-31T03:35:22.281Z,98459.69
2022-10-31T03:38:24.401Z,98465.50
2022-10-31T03:41:30.207Z,98454.00
2022-10-31T03:44:32.260Z,98451.94
2022-10-31T03:47:38.031Z,98449.94
2022-10-31T03:51:16.274Z,98448.94
2022-10-31T03:54:36.614Z,98451.03
2022-10-31T03:57:55.029Z,98472.41
2022-10-31T04:00:58.948Z,98469.47
2022-10-31T04:04:01.474Z,98462.13
2022-10-31T04:07:03.565Z,98465.22
2022-10-31T04:10:09.104Z,98454.81
2022-10-31T04:16:25.250Z,98458.63
2022-10-31T04:19:27.350Z,98452.06
2022-10-31T04:22:29.519Z,98453.38
2022-10-31T04:25:31.580Z,98457.19
2022-10-31T04:28:35.117Z,98437.00
2022-10-31T04:31:38.192Z,98440.16
2022-10-31T04:34:40.346Z,98439.75
2022-10-31T04:37:42.395Z,98446.09
2022-10-31T04:40:45.825Z,98439.31
2022-10-31T04:43:50.880Z,98445.38
2022-10-31T04:46:53.078Z,98437.59
2022-10-31T04:49:55.124Z,98429.88
2022-10-31T04:52:57.192Z,98439.94
2022-10-31T04:56:03.108Z,98433.13
2022-10-31T04:59:16.097Z,98430.59
2022-10-31T05:02:37.636Z,98432.63
2022-10-31T05:05:42.901Z,98426.31
2022-10-31T05:08:45.015Z,98433.47
2022-10-31T05:11:47.740Z,98431.22
2022-10-31T05:15:15.927Z,98432.28
2022-10-31T05:18:36.275Z,98428.69
2022-10-31T05:22:04.202Z,98423.88
2022-10-31T05:25:08.796Z,98433.13
2022-10-31T05:28:10.900Z,98435.13
2022-10-31T05:31:13.319Z,98428.72
2022-10-31T05:34:16.814Z,98416.28
2022-10-31T05:37:47.939Z,98411.22
2022-10-31T05:40:50.019Z,98413.34
2022-10-31T05:43:52.120Z,98400.53
2022-10-31T05:46:58.673Z,98398.59
2022-10-31T05:50:30.633Z,98395.94
2022-10-31T05:53:41.457Z,98391.66
2022-10-31T05:56:43.560Z,98387.88
2022-10-31T05:59:45.611Z,98382.78
2022-10-31T06:02:47.708Z,98397.16
2022-10-31T06:06:12.872Z,98386.44
2022-10-31T06:09:16.922Z,98393.03
2022-10-31T06:12:20.093Z,98397.25
2022-10-31T06:15:48.160Z,98402.00
2022-10-31T06:18:50.347Z,98390.38
2022-10-31T06:21:53.528Z,98393.19
2022-10-31T06:24:55.692Z,98394.78
2022-10-31T06:27:57.963Z,98386.53
2022-10-31T06:31:05.873Z,98375.34
2022-10-31T06:34:08.076Z,98372.09
2022-10-31T06:37:11.495Z,98384.66
2022-10-31T06:40:16.254Z,98378.94
2022-10-31T06:43:43.448Z,98390.41
2022-10-31T06:47:03.942Z,98382.34
2022-10-31T06:50:14.867Z,98378.81
2022-10-31T06:53:17.181Z,98392.38
2022-10-31T06:56:19.297Z,98395.94
2022-10-31T06:59:25.623Z,98396.84
2022-10-31T07:02:57.788Z,98400.63
2022-10-31T07:06:00.073Z,98401.22
2022-10-31T07:09:02.835Z,98386.19
2022-10-31T07:12:05.264Z,98403.03
2022-10-31T07:15:11.200Z,98394.38
2022-10-31T07:18:13.616Z,98406.03
2022-10-31T07:21:15.908Z,98398.06
2022-10-31T07:24:18.020Z,98398.88
2022-10-31T07:27:20.113Z,98400.13
2022-10-31T07:30:23.944Z,98400.88
2022-10-31T07:33:29.927Z,98404.81
2022-10-31T07:36:52.111Z,98396.22
2022-10-31T07:39:54.819Z,98406.03
2022-10-31T07:42:58.797Z,98406.69
2022-10-31T07:46:19.495Z,98409.88
2022-10-31T07:49:26.419Z,98407.81
2022-10-31T07:52:46.904Z,98408.78
2022-10-31T07:56:11.522Z,98401.25
2022-10-31T07:59:14.804Z,98394.69
2022-10-31T08:02:17.001Z,98393.41
2022-10-31T08:05:25.045Z,98392.81
2022-10-31T08:09:05.349Z,98397.63
2022-10-31T08:12:08.394Z,98400.25
2022-10-31T08:15:11.349Z,98400.25
2022-10-31T08:18:14.585Z,98410.03
2022-10-31T08:21:17.050Z,98399.19
2022-10-31T08:24:20.536Z,98397.81
2022-10-31T08:27:22.997Z,98399.91
2022-10-31T08:30:29.181Z,98395.41
2022-10-31T08:33:51.534Z,98392.75
2022-10-31T08:37:12.716Z,98402.56
2022-10-31T08:40:19.349Z,98392.00
2022-10-31T08:43:21.436Z,98410.38
2022-10-31T08:46:24.485Z,98400.91
2022-10-31T08:49:26.598Z,98392.28
2022-10-31T08:52:51.151Z,98401.75
2022-10-31T08:55:51.550Z,98397.25
2022-10-31T08:59:01.161Z,98385.53
2022-10-31T09:02:12.409Z,98401.19
2022-10-31T09:05:14.894Z,98402.38
2022-10-31T09:08:17.371Z,98400.13
2022-10-31T09:11:21.903Z,98403.09
2022-10-31T09:14:58.998Z,98402.31
2022-10-31T09:18:07.065Z,98404.97
2022-10-31T09:21:27.692Z,98398.06
2022-10-31T09:24:29.775Z,98395.97
2022-10-31T09:27:31.852Z,98396.66
2022-10-31T09:30:35.830Z,98386.81
2022-10-31T09:33:38.188Z,98388.84
2022-10-31T09:37:00.267Z,98389.84
2022-10-31T09:40:03.161Z,98389.53
2022-10-31T09:43:28.405Z,98379.81
2022-10-31T09:46:55.226Z,98380.53
2022-10-31T09:50:15.681Z,98377.03
2022-10-31T09:53:48.857Z,98374.50
2022-10-31T09:56:54.978Z,98372.31
2022-10-31T09:59:57.027Z,98372.28
2022-10-31T10:03:28.025Z,98364.00
2022-10-31T10:06:33.670Z,98381.19
2022-10-31T10:09:54.001Z,98385.97
2022-10-31T10:13:26.228Z,98382.84
2022-10-31T10:16:40.465Z,98377.16
2022-10-31T10:20:13.587Z,98376.41
2022-10-31T10:23:38.558Z,98385.72
2022-10-31T10:27:00.125Z,98385.63
2022-10-31T10:30:19.496Z,98365.34
2022-10-31T10:33:59.986Z,98364.63
2022-10-31T10:37:20.169Z,98361.28
2022-10-31T10:40:25.285Z,98355.72
2022-10-31T10:43:38.244Z,98368.47
2022-10-31T10:47:07.970Z,98348.91
2022-10-31T10:50:27.286Z,98348.56
2022-10-31T10:54:21.844Z,98356.47
2022-10-31T10:57:58.385Z,98355.28
2022-10-31T11:01:00.725Z,98349.81
2022-10-31T11:04:04.154Z,98358.63
2022-10-31T11:07:08.828Z,98346.09
2022-10-31T11:10:15.317Z,98344.75
2022-10-31T11:13:24.365Z,98349.63
2022-10-31T11:16:35.570Z,98337.31
2022-10-31T11:19:40.282Z,98330.91
2022-10-31T11:22:44.024Z,98333.78
2022-10-31T11:25:59.277Z,98318.59
2022-10-31T11:29:03.232Z,98322.28
2022-10-31T11:32:05.482Z,98326.34
2022-10-31T11:35:11.414Z,98322.34
2022-10-31T11:38:18.870Z,98319.63
2022-10-31T11:41:30.688Z,98320.69
2022-10-31T11:44:33.673Z,98319.59
2022-10-31T11:47:37.733Z,98309.53
2022-10-31T11:50:42.054Z,98312.25
2022-10-31T11:53:56.850Z,98316.81
2022-10-31T11:57:02.063Z,98312.47
2022-10-31T12:00:18.644Z,98314.22
2022-10-31T12:03:23.684Z,98318.81
2022-10-31T12:06:39.994Z,98309.03
2022-10-31T12:09:42.099Z,98293.38
2022-10-31T12:13:19.358Z,98298.16
2022-10-31T12:16:33.209Z,98292.81
2022-10-31T12:20:22.397Z,98274.97
2022-10-31T12:24:01.734Z,98287.97
2022-10-31T12:27:27.834Z,98293.00
2022-10-31T12:30:56.586Z,98285.84
2022-10-31T12:34:37.433Z,98283.19
2022-10-31T12:37:54.233Z,98279.72
2022-10-31T12:41:17.369Z,98279.75
2022-10-31T12:45:00.967Z,98280.56
2022-10-31T12:48:57.099Z,98271.75
2022-10-31T12:52:20.556Z,98278.16
2022-10-31T12:56:02.455Z,98286.72
2022-10-31T12:59:20.085Z,98279.00
2022-10-31T13:03:02.776Z,98282.19
2022-10-31T13:06:09.068Z,98281.91
2022-10-31T13:09:18.222Z,98274.16
2022-10-31T13:12:21.509Z,98281.38
2022-10-31T13:15:27.417Z,98270.72
2022-10-31T13:18:33.426Z,98264.59
2022-10-31T13:21:41.310Z,98263.00
2022-10-31T13:24:48.453Z,98249.41
2022-10-31T13:28:26.115Z,98255.47
2022-10-31T13:31:28.550Z,98244.50
2022-10-31T13:34:39.568Z,98238.41
2022-10-31T13:37:54.663Z,98234.75
2022-10-31T13:41:10.530Z,98232.38
2022-10-31T13:44:22.821Z,98223.31
2022-10-31T13:47:29.637Z,98219.56
2022-10-31T13:50:43.404Z,98213.19
2022-10-31T13:53:59.391Z,98214.25
2022-10-31T13:57:01.432Z,98212.94
2022-10-31T14:00:22.030Z,98194.28
2022-10-31T14:03:36.793Z,98194.03
2022-10-31T14:07:13.592Z,98200.41
2022-10-31T14:10:33.087Z,98189.75
2022-10-31T14:13:44.605Z,98186.75
2022-10-31T14:16:47.750Z,98176.44
2022-10-31T14:20:22.272Z,98174.84
2022-10-31T14:23:41.421Z,98166.88
2022-10-31T14:26:58.392Z,98170.06
2022-10-31T14:30:17.736Z,98170.59
2022-10-31T14:33:20.834Z,98159.97
2022-10-31T14:36:27.879Z,98152.78
2022-10-31T14:39:55.244Z,98159.97
2022-10-31T14:43:53.786Z,98156.25
2022-10-31T14:47:21.010Z,98152.25
2022-10-31T14:50:55.336Z,98146.66
2022-10-31T14:53:57.679Z,98133.09
2022-10-31T14:57:05.217Z,98125.38
2022-10-31T15:00:17.562Z,98115.22
2022-10-31T15:03:44.559Z,98124.22
2022-10-31T15:07:06.731Z,98122.69
2022-10-31T15:10:35.878Z,98125.63
2022-10-31T15:13:47.292Z,98140.56
2022-10-31T15:16:49.430Z,98136.81
2022-10-31T15:19:51.645Z,98137.34
2022-10-31T15:22:54.634Z,98138.94
2022-10-31T15:26:04.847Z,98129.09
2022-10-31T15:29:13.985Z,98134.66
2022-10-31T15:32:25.190Z,98131.19
2022-10-31T15:35:29.730Z,98118.69
2022-10-31T15:38:31.819Z,98124.31
2022-10-31T15:41:44.113Z,98116.03
2022-10-31T15:44:46.139Z,98119.22
2022-10-31T15:47:59.378Z,98118.97
2022-10-31T15:51:02.203Z,98117.09
2022-10-31T15:54:04.272Z,98098.72
2022-10-31T15:57:12.320Z,98106.47
2022-10-31T16:00:26.003Z,98095.25
2022-10-31T16:03:30.493Z,98094.97
2022-10-31T16:06:35.849Z,98087.53
2022-10-31T16:09:37.927Z,98094.97
2022-10-31T16:12:45.862Z,98092.03
2022-10-31T16:16:21.210Z,98097.06
2022-10-31T16:19:32.043Z,98096.81
2022-10-31T16:22:38.771Z,98097.88
2022-10-31T16:25:40.922Z,98095.72
2022-10-31T16:29:03.474Z,98093.81
2022-10-31T16:32:37.976Z,98097.81
2022-10-31T16:35:40.308Z,98088.22
2022-10-31T16:38:42.348Z,98086.06
2022-10-31T16:41:50.298Z,98096.91
2022-10-31T16:44:52.385Z,98093.69
2022-10-31T16:47:54.646Z,98090.47
2022-10-31T16:50:56.749Z,98088.94
2022-10-31T16:53:58.848Z,98080.44
2022-10-31T16:57:01.016Z,98085.75
2022-10-31T17:00:04.292Z,98080.66
2022-10-31T17:03:06.789Z,98079.38
2022-10-31T17:06:13.269Z,98063.69
2022-10-31T17:09:15.287Z,98071.66
2022-10-31T17:12:19.931Z,98069.31
2022-10-31T17:15:25.460Z,98066.72
2022-10-31T17:18:28.125Z,98063.25
2022-10-31T17:21:30.258Z,98061.53
2022-10-31T17:24:32.294Z,98066.84
2022-10-31T17:27:34.316Z,98051.13
2022-10-31T17:30:36.860Z,98046.94
2022-10-31T17:33:38.916Z,98039.31
2022-10-31T17:36:40.961Z,98037.72
2022-10-31T17:39:42.992Z,98033.53
2022-10-31T17:42:56.277Z,98015.72
2022-10-31T17:46:00.909Z,98018.63
2022-10-31T17:49:05.042Z,98015.31
2022-10-31T17:52:07.323Z,98023.84
2022-10-31T17:55:10.028Z,98003.41
2022-10-31T17:58:12.852Z,97994.69
2022-10-31T18:01:16.853Z,97986.88
2022-10-31T18:04:19.222Z,97983.94
2022-10-31T18:07:21.404Z,97984.94
2022-10-31T18:10:23.530Z,97975.41
2022-10-31T18:13:26.111Z,97961.09
2022-10-31T18:16:28.391Z,97952.53
2022-10-31T18:19:30.522Z,97944.59
2022-10-31T18:22:33.721Z,97938.47
2022-10-31T18:25:37.531Z,97932.78
2022-10-31T18:28:39.788Z,97926.75
2022-10-31T18:31:42.002Z,97923.50
2022-10-31T18:34:44.062Z,97927.75
2022-10-31T18:37:46.123Z,97921.09
2022-10-31T18:40:48.245Z,97919.78
2022-10-31T18:43:50.627Z,97924.06
2022-10-31T18:46:52.742Z,97933.41
2022-10-31T18:49:54.878Z,97930.78
2022-10-31T18:52:56.968Z,97914.59
2022-10-31T18:55:59.265Z,97916.19
2022-10-31T18:59:04.604Z,97923.06
2022-10-31T19:02:07.051Z,97921.50
2022-10-31T19:05:09.256Z,97910.34
2022-10-31T19:08:11.406Z,97911.69
2022-10-31T19:11:14.828Z,97904.81
2022-10-31T19:14:19.100Z,97890.75
2022-10-31T19:17:22.228Z,97897.66
2022-10-31T19:20:24.639Z,97890.47
2022-10-31T19:23:27.032Z,97882.00
2022-10-31T19:26:29.722Z,97887.56
2022-10-31T19:29:31.835Z,97880.44
2022-10-31T19:32:34.149Z,97893.41
2022-10-31T19:35:36.811Z,97880.38
2022-10-31T19:38:40.741Z,97874.03
2022-10-31T19:41:43.040Z,97857.09
2022-10-31T19:44:45.323Z,97857.06
2022-10-31T19:47:47.679Z,97855.72
2022-10-31T19:50:51.183Z,97839.25
2022-10-31T19:53:55.147Z,97838.75
2022-10-31T19:56:57.494Z,97839.78
2022-10-31T20:00:05.465Z,97828.41
2022-10-31T20:03:17.135Z,97814.59
2022-10-31T20:06:36.936Z,97821.22
2022-10-31T20:09:39.079Z,97831.31
2022-10-31T20:12:41.158Z,97823.31
2022-10-31T20:15:43.257Z,97824.66
2022-10-31T20:18:46.955Z,97816.44
2022-10-31T20:21:49.047Z,97806.84
2022-10-31T20:24:51.074Z,97802.00
2022-10-31T20:27:53.166Z,97797.75
2022-10-31T20:30:55.338Z,97800.19
2022-10-31T20:33:57.520Z,97784.50
2022-10-31T20:36:59.625Z,97769.41
2022-10-31T20:40:01.686Z,97771.25
2022-10-31T20:43:04.120Z,97774.81
2022-10-31T20:46:11.002Z,97769.00
2022-10-31T20:49:14.154Z,97772.72
2022-10-31T20:52:16.440Z,97774.19
2022-10-31T20:55:18.676Z,97784.56
2022-10-31T20:58:20.704Z,97781.38
2022-10-31T21:01:30.831Z,97768.84
2022-10-31T21:04:33.109Z,97761.75
2022-10-31T21:07:35.256Z,97751.63
2022-10-31T21:10:39.090Z,97751.91
2022-10-31T21:13:43.031Z,97744.69
2022-10-31T21:16:45.749Z,97744.16
2022-10-31T21:19:47.868Z,97733.72
2022-10-31T21:22:50.460Z,97749.81
2022-10-31T21:25:52.896Z,97734.34
2022-10-31T21:28:56.870Z,97722.88
2022-10-31T21:31:58.941Z,97714.88
2022-10-31T21:35:00.956Z,97700.22
2022-10-31T21:38:03.385Z,97690.53
2022-10-31T21:41:08.378Z,97692.09
2022-10-31T21:44:10.488Z,97677.94
2022-10-31T21:47:12.552Z,97656.47
2022-10-31T21:50:14.881Z,97659.00
2022-10-31T21:53:35.803Z,97637.41
2022-10-31T21:56:37.992Z,97631.69
2022-10-31T21:59:45.632Z,97630.13
2022-10-31T22:02:47.573Z,97619.22
2022-10-31T22:05:49.651Z,97610.53
2022-10-31T22:08:51.712Z,97609.44
2022-10-31T22:11:53.819Z,97590.59
2022-10-31T22:14:55.939Z,97575.22
2022-10-31T22:17:57.999Z,97567.28
2022-10-31T22:21:12.316Z,97545.53
2022-10-31T22:24:15.210Z,97519.84
2022-10-31T22:27:17.273Z,97512.16
2022-10-31T22:30:19.373Z,97499.13
2022-10-31T22:33:21.424Z,97488.00
2022-10-31T22:36:25.985Z,97485.06
2022-10-31T22:39:28.636Z,97477.94
2022-10-31T22:42:30.689Z,97486.41
2022-10-31T22:45:32.706Z,97474.16
2022-10-31T22:48:40.613Z,97465.91
2022-10-31T22:51:43.207Z,97456.16
2022-10-31T22:54:45.341Z,97441.25
2022-10-31T22:57:47.408Z,97426.91
2022-10-31T23:00:49.607Z,97394.34
2022-10-31T23:03:51.786Z,97411.13
2022-10-31T23:06:53.829Z,97401.41
2022-10-31T23:09:56.390Z,97368.06
2022-10-31T23:13:17.289Z,97357.75
2022-10-31T23:16:19.434Z,97351.84
2022-10-31T23:19:25.455Z,97343.63
2022-10-31T23:22:27.586Z,97333.28
2022-10-31T23:25:48.246Z,97322.44
2022-10-31T23:28:50.340Z,97299.81
2022-10-31T23:31:54.693Z,97283.94
2022-10-31T23:34:59.063Z,97281.66
2022-10-31T23:38:01.417Z,97272.94
2022-10-31T23:41:03.983Z,97253.84
2022-10-31T23:44:06.201Z,97243.63
2022-10-31T23:47:08.397Z,97219.44
2022-10-31T23:50:10.501Z,97203.50
2022-10-31T23:53:12.617Z,97192.97
2022-10-31T23:56:14.764Z,97189.25
2022-10-31T23:59:16.833Z,97182.91
